Weather History for KTKV - December, 2012

Change the Weather History Date:

Saturday, December 15, 2012

  Actual Average (KRHI) Record (KRHI)
Temperature  
Mean Temperature 32 °F 17 °F  
Max Temperature 33 °F 25 °F 48 °F (1993)
Min Temperature 32 °F 8 °F -28 °F (1919)
Degree Days  
Heating Degree Days 32 48  
Month to date heating degree days 686  
Since 1 July heating degree days 2820  
Cooling Degree Days 0 0  
Month to date cooling degree days 0  
Year to date cooling degree days 261  
Moisture  
Dew Point 32 °F    
Average Humidity 95    
Maximum Humidity 100    
Minimum Humidity 87    
Precipitation  
Precipitation 0.10 in 0.04 in 0.58 in (1940)
Month to date precipitation 0.75  
Year to date precipitation 30.71  
Snow  
Snow 0.00 in - 6.00 in (1940)
Month to date snowfall  
Since 1 July snowfall  
Snow Depth -    
Sea Level Pressure  
Sea Level Pressure 29.68 in    
Wind  
Wind Speed 6 mph (ESE)    
Max Wind Speed 9 mph    
Max Gust Speed 20 mph    
Visibility 4 miles    
Events Fog , Rain , Snow    
T = Trace of Precipitation, MM = Missing Value Source: NWS Daily Summary

Daily Weather History Graph

Daily Weather History Graph

Search for Another Location

Airport or City:

Trip Planner

Search our weather history database for the weather conditions in past years. The results will help you decide how hot, cold, wet, or windy it might be!

Date:

Astronomy

Dec. 15, 2012 Rise Set
Actual Time 7:32 AM CST 4:16 PM CST
Civil Twilight 6:58 AM CST 4:50 PM CST
Nautical Twilight 6:21 AM CST 5:28 PM CST
Astronomical Twilight 5:44 AM CST 6:04 PM CST
Moon 9:20 AM CST (12/15) 7:27 PM CST (12/15)
Length of Visible Light 9h 52m
Length of Day
8h 43m
Waxing Crescent, 8% of the Moon is Illuminated
Dec 15
Waxing Crescent
Dec 19
First Quarter
Dec 28
Full
Jan 4
Last Quarter
Jan 11
New

Hourly Weather History & Observations

Time (CST) Temp. Windchill Dew Point Humidity Pressure Visibility Wind Dir Wind Speed Gust Speed Precip Events Conditions
12:15 AM 32.0 °F 25.6 °F 28.4 °F 87% 29.96 in 7.0 mi ESE 6.9 mph - N/A   Overcast
12:35 AM 32.0 °F 26.4 °F 30.2 °F 93% 29.96 in 7.0 mi ESE 5.8 mph - N/A   Overcast
12:55 AM 32.0 °F 28.7 °F 30.2 °F 93% 29.94 in 7.0 mi East 3.5 mph - N/A   Overcast
1:15 AM 32.0 °F 26.4 °F 30.2 °F 93% 29.94 in 7.0 mi SE 5.8 mph - N/A   Overcast
1:35 AM 32.0 °F 24.8 °F 30.2 °F 93% 29.93 in 7.0 mi ESE 8.1 mph - N/A   Overcast
1:55 AM 32.0 °F 26.4 °F 30.2 °F 93% 29.93 in 7.0 mi ESE 5.8 mph - N/A   Overcast
2:15 AM 32.0 °F 25.6 °F 30.2 °F 93% 29.92 in 7.0 mi East 6.9 mph - N/A   Overcast
2:35 AM 32.0 °F 24.8 °F 30.2 °F 93% 29.91 in 7.0 mi ESE 8.1 mph - N/A   Overcast
2:55 AM 32.0 °F 26.4 °F 30.2 °F 93% 29.90 in 7.0 mi ESE 5.8 mph - N/A   Overcast
3:15 AM 32.0 °F 26.4 °F 32.0 °F 100% 29.89 in 7.0 mi ESE 5.8 mph - N/A   Overcast
3:35 AM 32.0 °F 26.4 °F 32.0 °F 100% 29.88 in 5.0 mi ESE 5.8 mph - N/A   Overcast
3:55 AM 33.8 °F 28.6 °F 32.0 °F 93% 29.88 in 5.0 mi ESE 5.8 mph - N/A   Overcast
4:15 AM 33.8 °F 28.6 °F 32.0 °F 93% 29.87 in 5.0 mi ESE 5.8 mph - N/A   Overcast
4:35 AM 33.8 °F 28.6 °F 32.0 °F 93% 29.86 in 5.0 mi ESE 5.8 mph - N/A   Overcast
4:55 AM 33.8 °F 29.6 °F 32.0 °F 93% 29.85 in 5.0 mi ESE 4.6 mph - N/A   Overcast
5:15 AM 33.8 °F 28.6 °F 32.0 °F 93% 29.84 in 4.0 mi ESE 5.8 mph - N/A   Overcast
5:35 AM 33.8 °F 28.6 °F 32.0 °F 93% 29.83 in 4.0 mi ESE 5.8 mph - N/A   Overcast
5:55 AM 33.8 °F 27.0 °F 32.0 °F 93% 29.82 in 5.0 mi ESE 8.1 mph - N/A   Overcast
6:15 AM 33.8 °F 27.7 °F 32.0 °F 93% 29.81 in 5.0 mi ESE 6.9 mph - N/A   Overcast
6:35 AM 33.8 °F 27.7 °F 32.0 °F 93% 29.80 in 5.0 mi ESE 6.9 mph - N/A   Overcast
6:55 AM 33.8 °F 26.4 °F 32.0 °F 93% 29.80 in 5.0 mi ESE 9.2 mph - N/A   Overcast
7:15 AM 33.8 °F 26.4 °F 32.0 °F 93% 29.79 in 5.0 mi ESE 9.2 mph - N/A   Overcast
7:35 AM 33.8 °F 27.7 °F 32.0 °F 93% 29.78 in 5.0 mi ESE 6.9 mph 16.1 mph N/A   Overcast
7:55 AM 33.8 °F 27.0 °F 32.0 °F 93% 29.77 in 4.0 mi ESE 8.1 mph - N/A   Overcast
8:15 AM 33.8 °F 27.0 °F 32.0 °F 93% 29.77 in 4.0 mi ESE 8.1 mph 16.1 mph N/A   Overcast
8:35 AM 33.8 °F 27.0 °F 32.0 °F 93% 29.75 in 4.0 mi East 8.1 mph - N/A   Overcast
8:55 AM 33.8 °F 29.6 °F 32.0 °F 93% 29.74 in 4.0 mi ESE 4.6 mph - N/A   Overcast
9:15 AM 33.8 °F 28.6 °F 32.0 °F 93% 29.73 in 3.0 mi East 5.8 mph - N/A   Light Drizzle
9:35 AM 33.8 °F 26.4 °F 32.0 °F 93% 29.73 in 3.0 mi ESE 9.2 mph 19.6 mph N/A   Drizzle
9:55 AM 33.8 °F 28.6 °F 32.0 °F 93% 29.73 in 2.5 mi ESE 5.8 mph - N/A   Drizzle
10:15 AM 33.8 °F 28.6 °F 32.0 °F 93% 29.73 in 2.0 mi ESE 5.8 mph - N/A Rain Light Rain
10:35 AM 33.8 °F 27.0 °F 32.0 °F 93% 29.72 in 1.8 mi ESE 8.1 mph - N/A Rain Rain
10:55 AM 33.8 °F 27.7 °F 32.0 °F 93% 29.71 in 1.8 mi ESE 6.9 mph - N/A Rain Rain
11:15 AM 33.8 °F 27.0 °F 32.0 °F 93% 29.69 in 1.8 mi ESE 8.1 mph - N/A Rain Rain
11:35 AM 33.8 °F 27.7 °F 32.0 °F 93% 29.68 in 2.5 mi ESE 6.9 mph - N/A Rain Light Rain
11:55 AM 33.8 °F 27.0 °F 32.0 °F 93% 29.66 in 2.5 mi ESE 8.1 mph 16.1 mph N/A Rain Light Rain
12:15 PM 33.8 °F 26.4 °F 32.0 °F 93% 29.65 in 2.5 mi ESE 9.2 mph - N/A Rain Light Rain
12:35 PM 33.8 °F 27.0 °F 32.0 °F 93% 29.63 in 2.5 mi ESE 8.1 mph - 0.01 in Rain Light Rain
12:55 PM 33.8 °F 27.7 °F 32.0 °F 93% 29.61 in 2.0 mi ESE 6.9 mph - 0.01 in Rain Light Rain
1:15 PM 32.0 °F 26.4 °F 32.0 °F 100% 29.60 in 1.5 mi ESE 5.8 mph - N/A Snow Light Snow
1:35 PM 32.0 °F 24.8 °F 32.0 °F 100% 29.58 in 2.0 mi ESE 8.1 mph - N/A Snow Light Snow
1:55 PM 32.0 °F 24.2 °F 32.0 °F 100% 29.57 in 3.0 mi ESE 9.2 mph 18.4 mph 0.01 in Rain Rain
2:15 PM 32.0 °F 24.8 °F 32.0 °F 100% 29.57 in 3.0 mi ESE 8.1 mph - N/A   Overcast
2:35 PM 33.8 °F 28.6 °F 32.0 °F 93% 29.56 in 4.0 mi ESE 5.8 mph - N/A Rain Light Rain
2:55 PM 33.8 °F 27.7 °F 32.0 °F 93% 29.56 in 4.0 mi ESE 6.9 mph - N/A Rain Light Rain
3:15 PM 33.8 °F 28.6 °F 32.0 °F 93% 29.56 in 3.0 mi ESE 5.8 mph - N/A Rain Light Rain
3:35 PM 33.8 °F 28.6 °F 32.0 °F 93% 29.56 in 4.0 mi ESE 5.8 mph - N/A Rain Light Rain
3:55 PM 33.8 °F 29.6 °F 32.0 °F 93% 29.56 in 5.0 mi ESE 4.6 mph - N/A Rain Light Rain
4:15 PM 33.8 °F 28.6 °F 32.0 °F 93% 29.55 in 5.0 mi ESE 5.8 mph - 0.01 in Rain Rain
4:35 PM 32.0 °F 26.4 °F 32.0 °F 100% 29.55 in 5.0 mi SE 5.8 mph - 0.01 in Rain Rain
4:55 PM 32.0 °F 26.4 °F 32.0 °F 100% 29.55 in 3.0 mi ESE 5.8 mph - 0.01 in Snow Light Snow
5:15 PM 32.0 °F 27.5 °F 32.0 °F 100% 29.55 in 5.0 mi ESE 4.6 mph - N/A   Overcast
5:35 PM 32.0 °F - 32.0 °F 100% 29.54 in 5.0 mi Calm Calm - 0.01 in Snow Light Snow
5:55 PM 32.0 °F 28.7 °F 32.0 °F 100% 29.54 in 5.0 mi ESE 3.5 mph - 0.01 in Rain Light Rain
6:15 PM 33.8 °F 30.8 °F 32.0 °F 93% 29.54 in 5.0 mi ESE 3.5 mph - N/A Rain Light Rain
6:35 PM 33.8 °F 30.8 °F 32.0 °F 93% 29.54 in 5.0 mi ESE 3.5 mph - 0.01 in   Light Drizzle
6:55 PM 33.8 °F 30.8 °F 32.0 °F 93% 29.53 in 7.0 mi ESE 3.5 mph - 0.01 in   Overcast
7:15 PM 33.8 °F 30.8 °F 32.0 °F 93% 29.53 in 7.0 mi East 3.5 mph - N/A   Overcast
7:35 PM 33.8 °F 30.8 °F 32.0 °F 93% 29.53 in 7.0 mi East 3.5 mph - 0.01 in   Overcast
7:55 PM 32.0 °F - 32.0 °F 100% 29.53 in 7.0 mi Calm Calm - 0.01 in   Overcast
8:15 PM 33.8 °F - 32.0 °F 93% 29.53 in 7.0 mi Calm Calm - N/A   Overcast
8:35 PM 33.8 °F - 32.0 °F 93% 29.53 in 7.0 mi Calm Calm - 0.01 in   Overcast
8:55 PM 33.8 °F - 32.0 °F 93% 29.52 in 5.0 mi Calm Calm - 0.01 in   Overcast
9:15 PM 33.8 °F - 32.0 °F 93% 29.51 in 3.0 mi Calm Calm - 0.01 in   Overcast
9:35 PM 33.8 °F - 32.0 °F 93% 29.51 in 2.5 mi Calm Calm - 0.01 in   Overcast
9:55 PM 33.8 °F - 32.0 °F 93% 29.50 in 1.5 mi Calm Calm - 0.01 in   Overcast
10:15 PM 32.0 °F - 32.0 °F 100% 29.50 in 1.0 mi Calm Calm - N/A   Overcast
10:35 PM 32.0 °F - 32.0 °F 100% 29.50 in 0.8 mi Calm Calm - 0.01 in   Overcast
10:55 PM 32.0 °F - 32.0 °F 100% 29.50 in 0.8 mi Calm Calm - 0.01 in   Overcast
11:15 PM 32.0 °F - 32.0 °F 100% 29.50 in 0.8 mi Calm Calm - N/A   Overcast
11:35 PM 32.0 °F - 32.0 °F 100% 29.49 in 0.5 mi Calm Calm - N/A Fog Fog
11:55 PM 32.0 °F - 32.0 °F 100% 29.49 in 0.5 mi Calm Calm - 0.01 in Fog Fog